createdAt,value
2018-12-25T00:02:11.841Z,13.35
2018-12-25T00:04:59.964Z,14.00
2018-12-25T00:07:47.979Z,11.47
2018-12-25T00:10:36.083Z,11.25
2018-12-25T00:13:24.128Z,12.65
2018-12-25T00:16:12.341Z,13.13
2018-12-25T00:19:06.132Z,12.90
2018-12-25T00:21:43.401Z,15.45
2018-12-25T00:24:24.086Z,14.97
2018-12-25T00:26:52.996Z,13.98
2018-12-25T00:29:41.085Z,14.83
2018-12-25T00:32:29.083Z,14.28
2018-12-25T00:35:17.164Z,13.65
2018-12-25T00:38:05.266Z,14.68
2018-12-25T00:40:53.252Z,12.65
2018-12-25T00:43:41.268Z,12.00
2018-12-25T00:46:29.257Z,11.12
2018-12-25T00:49:17.586Z,11.88
2018-12-25T00:52:05.606Z,12.60
2018-12-25T00:54:53.654Z,11.78
2018-12-25T00:57:41.903Z,10.63
2018-12-25T01:00:29.937Z,12.93
2018-12-25T01:03:17.981Z,14.23
2018-12-25T01:06:06.302Z,15.32
2018-12-25T01:08:54.343Z,14.43
2018-12-25T01:11:42.564Z,12.97
2018-12-25T01:14:11.401Z,13.10
2018-12-25T01:16:59.424Z,13.68
2018-12-25T01:19:47.469Z,11.10
2018-12-25T01:22:28.007Z,12.03
2018-12-25T01:25:09.070Z,13.03
2018-12-25T01:31:01.626Z,11.40
2018-12-25T01:33:43.014Z,11.28
2018-12-25T01:36:23.574Z,9.95
2018-12-25T01:39:04.254Z,10.23
2018-12-25T01:41:33.081Z,10.30
2018-12-25T01:44:21.208Z,10.60
2018-12-25T01:46:50.392Z,12.23
2018-12-25T01:49:38.395Z,12.55
2018-12-25T01:52:26.494Z,11.83
2018-12-25T01:55:14.480Z,13.57
2018-12-25T01:58:03.106Z,11.05
2018-12-25T02:00:51.144Z,9.93
2018-12-25T02:03:39.283Z,10.72
2018-12-25T02:06:27.317Z,9.85
2018-12-25T02:09:15.620Z,11.15
2018-12-25T02:12:03.731Z,10.65
2018-12-25T02:14:51.742Z,10.03
2018-12-25T02:17:39.762Z,9.93
2018-12-25T02:23:06.593Z,14.00
2018-12-25T02:25:47.496Z,12.37
2018-12-25T02:28:28.157Z,15.17
2018-12-25T02:31:09.103Z,12.90
2018-12-25T02:33:49.893Z,13.22
2018-12-25T02:36:34.084Z,10.95
2018-12-25T02:39:15.935Z,9.93
2018-12-25T02:41:57.293Z,12.93
2018-12-25T02:44:37.855Z,13.70
2018-12-25T02:47:18.988Z,14.23
2018-12-25T02:50:00.114Z,12.78
2018-12-25T02:52:40.850Z,12.58
2018-12-25T02:55:22.044Z,15.23
2018-12-25T02:58:02.954Z,11.25
2018-12-25T03:00:46.302Z,12.55
2018-12-25T03:03:26.487Z,12.10
2018-12-25T03:06:07.581Z,12.85
2018-12-25T03:08:36.901Z,13.58
2018-12-25T03:13:55.740Z,12.37
2018-12-25T03:16:36.732Z,15.32
2018-12-25T03:19:17.740Z,13.48
2018-12-25T03:21:58.540Z,12.82
2018-12-25T03:24:39.435Z,15.68
2018-12-25T03:27:20.178Z,17.40
2018-12-25T03:30:00.898Z,15.85
2018-12-25T03:32:41.957Z,15.38
2018-12-25T03:35:22.761Z,15.30
2018-12-25T03:38:03.820Z,15.43
2018-12-25T03:40:44.708Z,16.30
2018-12-25T03:43:25.396Z,17.55
2018-12-25T03:46:06.058Z,15.43
2018-12-25T03:48:46.976Z,15.83
2018-12-25T03:51:27.939Z,17.25
2018-12-25T03:54:08.641Z,15.48
2018-12-25T03:56:49.366Z,15.55
2018-12-25T03:59:30.101Z,16.15
2018-12-25T04:02:10.930Z,16.75
2018-12-25T04:04:51.740Z,15.38
2018-12-25T04:07:32.793Z,16.48
2018-12-25T04:10:13.568Z,17.20
2018-12-25T04:12:54.517Z,17.83
2018-12-25T04:15:35.025Z,17.15
2018-12-25T04:18:15.814Z,17.33
2018-12-25T04:20:57.077Z,18.52
2018-12-25T04:23:37.682Z,17.67
2018-12-25T04:26:18.108Z,18.70
2018-12-25T04:28:59.086Z,17.52
2018-12-25T04:31:39.923Z,15.93
2018-12-25T04:34:21.032Z,15.30
2018-12-25T04:37:01.580Z,15.60
2018-12-25T04:39:42.689Z,15.13
2018-12-25T04:42:23.461Z,14.78
2018-12-25T04:45:04.009Z,14.07
2018-12-25T04:47:45.000Z,13.03
2018-12-25T04:50:29.392Z,13.15
2018-12-25T04:53:08.527Z,13.75
2018-12-25T04:55:49.364Z,14.60
2018-12-25T04:58:30.264Z,14.60
2018-12-25T05:01:11.097Z,15.38
2018-12-25T05:03:51.728Z,15.60
2018-12-25T05:06:32.341Z,15.23
2018-12-25T05:09:12.968Z,15.00
2018-12-25T05:11:53.648Z,18.45
2018-12-25T05:14:34.733Z,19.12
2018-12-25T05:17:15.547Z,18.30
2018-12-25T05:19:56.745Z,18.57
2018-12-25T05:22:37.579Z,20.30
2018-12-25T05:25:18.750Z,19.67
2018-12-25T05:27:59.548Z,21.35
2018-12-25T05:30:40.373Z,18.70
2018-12-25T05:33:21.267Z,17.85
2018-12-25T05:36:02.060Z,19.67
2018-12-25T05:38:42.740Z,19.95
2018-12-25T05:41:23.788Z,20.20
2018-12-25T05:44:04.570Z,21.45
2018-12-25T05:46:45.195Z,20.25
2018-12-25T05:49:26.295Z,20.55
2018-12-25T05:52:07.155Z,19.67
2018-12-25T05:54:35.964Z,19.20
2018-12-25T05:57:24.268Z,18.57
2018-12-25T06:00:12.617Z,18.15
2018-12-25T06:03:00.684Z,19.90
2018-12-25T06:05:49.029Z,22.42
2018-12-25T06:08:37.385Z,24.07
2018-12-25T06:11:25.910Z,20.72
2018-12-25T06:14:14.550Z,22.60
2018-12-25T06:17:02.836Z,22.13
2018-12-25T06:19:51.181Z,22.27
2018-12-25T06:22:31.836Z,19.20
2018-12-25T06:25:12.794Z,18.35
2018-12-25T06:27:53.718Z,22.52
2018-12-25T06:30:34.387Z,20.15
2018-12-25T06:33:15.476Z,19.77
2018-12-25T06:35:56.100Z,20.20
2018-12-25T06:38:37.084Z,18.55
2018-12-25T06:41:18.036Z,19.35
2018-12-25T06:43:59.373Z,19.80
2018-12-25T06:46:39.789Z,21.62
2018-12-25T06:49:20.244Z,18.87
2018-12-25T06:52:00.820Z,19.80
2018-12-25T06:54:41.672Z,20.10
2018-12-25T06:57:22.439Z,21.65
2018-12-25T07:00:03.158Z,22.17
2018-12-25T07:02:44.084Z,20.97
2018-12-25T07:05:24.768Z,21.30
2018-12-25T07:08:05.251Z,20.75
2018-12-25T07:10:46.364Z,20.52
2018-12-25T07:13:27.077Z,21.48
2018-12-25T07:16:07.536Z,20.48
2018-12-25T07:18:48.417Z,21.80
2018-12-25T07:21:17.590Z,20.40
2018-12-25T07:23:58.143Z,19.90
2018-12-25T07:26:39.417Z,18.30
2018-12-25T07:29:20.095Z,20.23
2018-12-25T07:32:00.729Z,19.48
2018-12-25T07:34:41.742Z,19.25
2018-12-25T07:37:22.134Z,19.05
2018-12-25T07:40:02.838Z,20.48
2018-12-25T07:42:43.405Z,20.02
2018-12-25T07:45:24.650Z,19.90
2018-12-25T07:48:05.885Z,19.10
2018-12-25T07:50:47.014Z,19.97
2018-12-25T07:53:27.677Z,27.58
2018-12-25T07:56:08.689Z,25.60
2018-12-25T07:58:50.145Z,18.25
2018-12-25T08:01:31.199Z,20.85
2018-12-25T08:04:11.782Z,21.62
2018-12-25T08:06:52.196Z,20.08
2018-12-25T08:09:33.267Z,21.17
2018-12-25T08:12:13.968Z,19.90
2018-12-25T08:14:55.244Z,19.62
2018-12-25T08:17:36.560Z,20.45
2018-12-25T08:20:17.984Z,19.57
2018-12-25T08:23:02.616Z,20.05
2018-12-25T08:25:41.031Z,23.30
2018-12-25T08:28:21.907Z,23.18
2018-12-25T08:31:02.683Z,22.65
2018-12-25T08:33:43.289Z,22.25
2018-12-25T08:36:24.146Z,20.90
2018-12-25T08:39:04.857Z,22.05
2018-12-25T08:41:45.327Z,21.75
2018-12-25T08:44:26.298Z,20.62
2018-12-25T08:47:07.119Z,19.30
2018-12-25T08:49:47.864Z,20.27
2018-12-25T08:52:28.520Z,23.57
2018-12-25T08:55:09.230Z,21.70
2018-12-25T08:57:50.013Z,23.25
2018-12-25T09:00:30.801Z,24.30
2018-12-25T09:03:11.174Z,22.05
2018-12-25T09:05:52.006Z,22.55
2018-12-25T09:08:34.891Z,22.48
2018-12-25T09:11:16.175Z,20.62
2018-12-25T09:13:56.594Z,24.93
2018-12-25T09:16:37.505Z,26.02
2018-12-25T09:19:17.811Z,25.60
2018-12-25T09:21:58.637Z,22.35
2018-12-25T09:24:39.337Z,21.85
2018-12-25T09:27:19.991Z,23.00
2018-12-25T09:30:01.315Z,23.87
2018-12-25T09:32:42.286Z,22.85
2018-12-25T09:35:26.047Z,23.18
2018-12-25T09:38:05.991Z,21.10
2018-12-25T09:40:46.700Z,21.45
2018-12-25T09:43:27.508Z,20.40
2018-12-25T09:46:08.296Z,21.05
2018-12-25T09:48:49.252Z,21.60
2018-12-25T09:51:30.099Z,20.08
2018-12-25T09:54:11.287Z,21.37
2018-12-25T09:56:52.787Z,21.45
2018-12-25T09:59:33.876Z,21.70
2018-12-25T10:02:15.059Z,21.25
2018-12-25T10:04:56.688Z,21.05
2018-12-25T10:07:37.792Z,21.00
2018-12-25T10:10:18.443Z,20.52
2018-12-25T10:12:59.510Z,19.80
2018-12-25T10:15:40.732Z,19.35
2018-12-25T10:18:21.564Z,21.75
2018-12-25T10:21:02.609Z,21.00
2018-12-25T10:23:43.336Z,22.42
2018-12-25T10:26:24.248Z,20.08
2018-12-25T10:29:05.116Z,18.23
2018-12-25T10:31:46.228Z,21.20
2018-12-25T10:34:26.634Z,18.40
2018-12-25T10:37:07.793Z,17.48
2018-12-25T10:39:49.150Z,18.75
2018-12-25T10:42:29.649Z,18.75
2018-12-25T10:45:10.309Z,19.13
2018-12-25T10:47:51.289Z,17.23
2018-12-25T10:50:32.312Z,19.53
2018-12-25T10:53:12.843Z,19.80
2018-12-25T10:55:53.876Z,18.25
2018-12-25T10:58:34.392Z,19.12
2018-12-25T11:01:25.204Z,18.67
2018-12-25T11:04:13.576Z,19.40
2018-12-25T11:07:01.720Z,20.35
2018-12-25T11:09:50.161Z,18.15
2018-12-25T11:12:38.519Z,19.15
2018-12-25T11:15:26.727Z,18.67
2018-12-25T11:18:14.731Z,18.25
2018-12-25T11:21:02.707Z,18.45
2018-12-25T11:23:43.743Z,18.30
2018-12-25T11:26:24.756Z,18.67
2018-12-25T11:29:05.655Z,17.90
2018-12-25T11:31:46.984Z,18.07
2018-12-25T11:34:28.272Z,17.25
2018-12-25T11:37:09.002Z,16.73
2018-12-25T11:39:49.801Z,17.40
2018-12-25T11:42:31.044Z,16.67
2018-12-25T11:45:11.643Z,17.70
2018-12-25T11:47:52.340Z,17.03
2018-12-25T11:50:21.581Z,15.48
2018-12-25T11:53:09.589Z,17.23
2018-12-25T11:55:57.731Z,17.02
2018-12-25T11:58:45.719Z,17.92
2018-12-25T12:01:33.695Z,18.95
2018-12-25T12:04:21.947Z,17.03
2018-12-25T12:07:09.931Z,17.40
2018-12-25T12:09:58.015Z,17.37
2018-12-25T12:12:46.250Z,16.95
2018-12-25T12:15:34.623Z,16.90
2018-12-25T12:18:22.616Z,18.23
2018-12-25T12:21:10.660Z,16.32
2018-12-25T12:23:51.762Z,16.25
2018-12-25T12:26:32.423Z,16.37
2018-12-25T12:32:02.244Z,15.72
2018-12-25T12:34:42.670Z,16.48
2018-12-25T12:37:23.340Z,17.30
2018-12-25T12:40:03.883Z,17.23
2018-12-25T12:42:45.193Z,16.40
2018-12-25T12:45:25.797Z,18.02
2018-12-25T12:48:06.876Z,17.20
2018-12-25T12:50:47.486Z,16.67
2018-12-25T12:53:28.243Z,17.23
2018-12-25T12:56:08.935Z,16.48
2018-12-25T12:58:49.806Z,18.40
2018-12-25T13:01:30.523Z,28.90
2018-12-25T13:04:11.655Z,18.77
2018-12-25T13:06:52.682Z,18.00
2018-12-25T13:09:33.132Z,17.15
2018-12-25T13:12:17.011Z,18.13
2018-12-25T13:14:57.695Z,15.88
2018-12-25T13:17:38.496Z,17.30
2018-12-25T13:20:19.316Z,17.05
2018-12-25T13:23:00.224Z,17.57
2018-12-25T13:25:41.014Z,16.85
2018-12-25T13:28:21.578Z,16.48
2018-12-25T13:31:02.444Z,16.75
2018-12-25T13:33:43.477Z,17.70
2018-12-25T13:36:24.947Z,19.02
2018-12-25T13:39:05.911Z,19.42
2018-12-25T13:41:46.755Z,18.73
2018-12-25T13:44:28.180Z,19.80
2018-12-25T13:47:08.860Z,18.47
2018-12-25T13:49:49.255Z,19.75
2018-12-25T13:52:30.117Z,19.55
2018-12-25T13:55:11.022Z,18.62
2018-12-25T13:57:52.144Z,20.02
2018-12-25T14:00:33.203Z,20.00
2018-12-25T14:03:13.859Z,19.50
2018-12-25T14:05:54.617Z,19.67
2018-12-25T14:08:35.615Z,23.45
2018-12-25T14:11:16.086Z,19.95
2018-12-25T14:13:57.016Z,20.50
2018-12-25T14:16:37.939Z,20.45
2018-12-25T14:19:18.198Z,20.27
2018-12-25T14:21:58.893Z,20.48
2018-12-25T14:24:39.795Z,20.50
2018-12-25T14:27:20.831Z,19.75
2018-12-25T14:30:01.423Z,21.77
2018-12-25T14:32:42.195Z,19.70
2018-12-25T14:35:22.811Z,20.43
2018-12-25T14:38:03.521Z,21.90
2018-12-25T14:40:44.119Z,20.85
2018-12-25T14:43:25.383Z,20.72
2018-12-25T14:46:05.849Z,22.87
2018-12-25T14:48:46.808Z,23.42
2018-12-25T14:51:27.563Z,23.20
2018-12-25T14:54:07.947Z,24.32
2018-12-25T14:56:48.628Z,24.72
2018-12-25T14:59:17.527Z,21.97
2018-12-25T15:01:46.298Z,22.27
2018-12-25T15:04:34.525Z,20.30
2018-12-25T15:07:22.878Z,21.35
2018-12-25T15:10:11.110Z,22.60
2018-12-25T15:12:59.407Z,22.70
2018-12-25T15:15:47.405Z,23.42
2018-12-25T15:18:35.475Z,23.83
2018-12-25T15:21:23.581Z,25.60
2018-12-25T15:24:04.718Z,25.50
2018-12-25T15:26:45.525Z,26.52
2018-12-25T15:29:26.243Z,34.65
2018-12-25T15:32:06.745Z,29.30
2018-12-25T15:34:47.468Z,29.30
2018-12-25T15:37:27.925Z,31.15
2018-12-25T15:40:08.467Z,30.77
2018-12-25T15:42:48.897Z,30.48
2018-12-25T15:45:29.824Z,31.45
2018-12-25T15:47:58.725Z,34.10
2018-12-25T15:50:46.800Z,32.33
2018-12-25T15:53:37.044Z,32.85
2018-12-25T15:56:24.597Z,33.50
2018-12-25T15:59:12.912Z,32.55
2018-12-25T16:02:00.903Z,33.53
2018-12-25T16:04:48.940Z,31.20
2018-12-25T16:07:37.271Z,36.65
2018-12-25T16:10:25.267Z,35.50
2018-12-25T16:13:13.347Z,34.40
2018-12-25T16:16:01.396Z,33.23
2018-12-25T16:18:49.472Z,33.18
2018-12-25T16:21:37.760Z,31.73
2018-12-25T16:24:18.689Z,34.58
2018-12-25T16:26:59.446Z,36.65
2018-12-25T16:29:40.373Z,42.25
2018-12-25T16:32:21.780Z,39.95
2018-12-25T16:35:02.360Z,39.20
2018-12-25T16:37:42.967Z,38.08
2018-12-25T16:40:23.527Z,38.95
2018-12-25T16:43:04.125Z,33.88
2018-12-25T16:45:45.084Z,33.83
2018-12-25T16:48:14.007Z,33.08
2018-12-25T16:51:02.333Z,32.95
2018-12-25T16:53:31.140Z,35.10
2018-12-25T16:56:00.597Z,34.63
2018-12-25T16:58:48.865Z,33.30
2018-12-25T17:01:37.313Z,35.20
2018-12-25T17:04:25.632Z,34.43
2018-12-25T17:07:13.659Z,36.00
2018-12-25T17:10:01.935Z,35.50
2018-12-25T17:12:30.712Z,37.10
2018-12-25T17:15:18.859Z,37.78
2018-12-25T17:18:06.879Z,33.18
2018-12-25T17:20:55.280Z,33.83
2018-12-25T17:23:43.315Z,32.85
2018-12-25T17:26:12.123Z,33.63
2018-12-25T17:29:00.177Z,33.90
2018-12-25T17:31:48.242Z,36.10
2018-12-25T17:34:36.258Z,36.10
2018-12-25T17:37:24.252Z,31.85
2018-12-25T17:40:12.482Z,34.15
2018-12-25T17:43:00.575Z,34.85
2018-12-25T17:45:48.634Z,32.87
2018-12-25T17:48:36.657Z,32.17
2018-12-25T17:51:24.943Z,32.90
2018-12-25T17:54:13.344Z,33.53
2018-12-25T17:57:01.363Z,31.62
2018-12-25T17:59:49.440Z,32.08
2018-12-25T18:02:37.446Z,31.25
2018-12-25T18:05:25.437Z,30.75
2018-12-25T18:08:13.466Z,29.72
2018-12-25T18:11:01.472Z,29.77
2018-12-25T18:13:49.532Z,31.05
2018-12-25T18:16:37.822Z,32.08
2018-12-25T18:19:25.843Z,38.13
2018-12-25T18:22:13.881Z,39.45
2018-12-25T18:24:54.266Z,39.20
2018-12-25T18:27:35.104Z,39.78
2018-12-25T18:30:15.961Z,40.78
2018-12-25T18:32:57.360Z,40.08
2018-12-25T18:35:38.659Z,40.13
2018-12-25T18:38:19.647Z,40.78
2018-12-25T18:41:00.763Z,41.98
2018-12-25T18:43:41.418Z,39.75
2018-12-25T18:46:22.014Z,39.35
2018-12-25T18:49:02.868Z,39.00
2018-12-25T18:51:43.909Z,38.38
2018-12-25T18:54:27.972Z,38.73
2018-12-25T18:57:07.856Z,44.30
2018-12-25T18:59:48.756Z,39.08
2018-12-25T19:02:29.448Z,37.73
2018-12-25T19:05:10.218Z,37.78
2018-12-25T19:07:51.491Z,37.63
2018-12-25T19:10:32.523Z,37.70
2018-12-25T19:13:13.346Z,39.67
2018-12-25T19:15:54.321Z,38.00
2018-12-25T19:18:34.708Z,38.67
2018-12-25T19:21:15.441Z,36.58
2018-12-25T19:23:56.552Z,42.33
2018-12-25T19:26:37.383Z,36.38
2018-12-25T19:29:17.860Z,35.52
2018-12-25T19:31:58.905Z,35.50
2018-12-25T19:34:39.628Z,34.70
2018-12-25T19:37:21.125Z,33.02
2018-12-25T19:40:02.118Z,36.83
2018-12-25T19:42:43.416Z,33.55
2018-12-25T19:45:24.321Z,31.85
2018-12-25T19:48:04.908Z,32.28
2018-12-25T19:50:45.571Z,32.98
2018-12-25T19:53:14.722Z,32.78
2018-12-25T19:55:43.974Z,32.25
2018-12-25T19:58:32.168Z,33.38
2018-12-25T20:01:20.412Z,33.45
2018-12-25T20:04:27.639Z,31.70
2018-12-25T20:07:34.836Z,34.00
2018-12-25T20:10:42.084Z,36.42
2018-12-25T20:13:49.440Z,33.13
2018-12-25T20:16:56.660Z,29.02
2018-12-25T20:20:03.915Z,29.60
2018-12-25T20:23:11.123Z,30.08
2018-12-25T20:25:51.783Z,29.75
2018-12-25T20:28:32.522Z,31.07
2018-12-25T20:31:13.119Z,29.20
2018-12-25T20:33:53.417Z,30.25
2018-12-25T20:36:33.994Z,33.42
2018-12-25T20:39:14.987Z,34.23
2018-12-25T20:41:55.660Z,33.33
2018-12-25T20:44:36.295Z,33.80
2018-12-25T20:47:17.562Z,36.93
2018-12-25T20:49:58.404Z,33.25
2018-12-25T20:52:38.947Z,34.55
2018-12-25T20:55:19.817Z,33.63
2018-12-25T20:58:00.437Z,34.03
2018-12-25T21:00:41.088Z,33.48
2018-12-25T21:03:21.723Z,39.05
2018-12-25T21:06:02.784Z,37.37
2018-12-25T21:08:43.462Z,37.85
2018-12-25T21:11:24.321Z,39.73
2018-12-25T21:14:05.180Z,41.20
2018-12-25T21:16:46.337Z,40.08
2018-12-25T21:19:28.303Z,43.35
2018-12-25T21:22:29.136Z,43.95
2018-12-25T21:25:10.325Z,41.88
2018-12-25T21:27:51.203Z,41.63
2018-12-25T21:30:32.313Z,42.15
2018-12-25T21:33:13.644Z,39.18
2018-12-25T21:35:54.204Z,37.98
2018-12-25T21:38:34.883Z,38.53
2018-12-25T21:41:16.056Z,38.73
2018-12-25T21:43:56.736Z,43.20
2018-12-25T21:46:37.584Z,39.83
2018-12-25T21:49:18.269Z,40.73
2018-12-25T21:51:59.241Z,39.48
2018-12-25T21:54:39.939Z,40.53
2018-12-25T21:57:20.947Z,40.57
2018-12-25T22:00:01.836Z,43.52
2018-12-25T22:02:31.012Z,46.53
2018-12-25T22:08:34.085Z,42.10
2018-12-25T22:11:22.166Z,40.52
2018-12-25T22:14:10.500Z,38.40
2018-12-25T22:16:58.636Z,37.00
2018-12-25T22:19:46.676Z,39.03
2018-12-25T22:22:35.010Z,38.23
2018-12-25T22:25:15.550Z,39.40
2018-12-25T22:27:56.298Z,38.27
2018-12-25T22:30:37.149Z,39.40
2018-12-25T22:33:18.103Z,38.80
2018-12-25T22:35:59.208Z,38.02
2018-12-25T22:38:39.915Z,35.98
2018-12-25T22:41:20.457Z,38.90
2018-12-25T22:44:01.473Z,38.70
2018-12-25T22:46:42.254Z,39.10
2018-12-25T22:49:23.057Z,41.02
2018-12-25T22:52:04.222Z,39.58
2018-12-25T22:54:44.883Z,40.05
2018-12-25T22:57:25.882Z,41.68
2018-12-25T23:00:07.099Z,44.33
2018-12-25T23:02:47.764Z,41.92
2018-12-25T23:05:28.593Z,41.15
2018-12-25T23:08:09.360Z,43.90
2018-12-25T23:10:50.250Z,39.53
2018-12-25T23:13:31.511Z,39.55
2018-12-25T23:16:12.245Z,40.03
2018-12-25T23:21:44.203Z,41.63
2018-12-25T23:24:25.494Z,37.33
2018-12-25T23:27:06.349Z,39.55
2018-12-25T23:29:46.992Z,40.70
2018-12-25T23:32:27.582Z,38.00
2018-12-25T23:35:08.534Z,39.63
2018-12-25T23:37:49.110Z,38.90
2018-12-25T23:40:30.625Z,42.75
2018-12-25T23:43:11.002Z,42.83
2018-12-25T23:45:51.500Z,42.75
2018-12-25T23:48:32.292Z,47.60
2018-12-25T23:51:13.057Z,42.47
2018-12-25T23:53:54.256Z,41.07
2018-12-25T23:56:34.853Z,44.25
2018-12-25T23:59:16.063Z,42.73
